| Date | Time | Temp. (oF) | Dew Point (oF) | Rel. Hum. (%) | Press. (in.) | Wind Dir. | Wind Speed (mph) | Hourly Rainfall (in.) |
|
|---|---|---|---|---|---|---|---|---|---|
| 1 | 12/06 | 00:00 | 28 | 24 | 88 | 30.57 | SSW | 0 | 0.00 |
| 2 | 12/05 | 23:00 | 29 | 25 | 86 | 30.58 | SSW | 0 | 0.00 |
| 3 | 12/05 | 22:00 | 30 | 26 | 86 | 30.58 | S | 0 | 0.00 |
| 4 | 12/05 | 21:00 | 32 | 27 | 82 | 30.59 | WSW | 0 | 0.00 |
| 5 | 12/05 | 20:00 | 34 | 29 | 82 | 30.60 | SSW | 0 | 0.00 |
| 6 | 12/05 | 19:00 | 36 | 29 | 76 | 30.60 | E | 0 | 0.00 |
| 7 | 12/05 | 18:00 | 40 | 30 | 70 | 30.58 | NNE | 0 | 0.00 |
| 8 | 12/05 | 17:00 | 43 | 31 | 63 | 30.57 | WSW | 0 | 0.00 |
| 9 | 12/05 | 16:00 | 46 | 32 | 59 | 30.56 | W | 3 | 0.00 |
| 10 | 12/05 | 15:00 | 47 | 32 | 58 | 30.56 | W | 3 | 0.00 |
| 11 | 12/05 | 14:00 | 48 | 33 | 57 | 30.57 | S | 3 | 0.00 |
| 12 | 12/05 | 13:00 | 47 | 34 | 61 | 30.59 | N | 5 | 0.00 |
| 13 | 12/05 | 12:00 | 45 | 33 | 64 | 30.62 | W | 4 | 0.00 |
| 14 | 12/05 | 11:00 | 44 | 34 | 69 | 30.64 | W | 4 | 0.00 |
| 15 | 12/05 | 10:00 | 39 | 31 | 75 | 30.65 | N | 2 | 0.00 |
| 16 | 12/05 | 09:00 | 33 | 30 | 90 | 30.65 | SSE | 0 | 0.00 |
| 17 | 12/05 | 08:00 | 26 | 23 | 91 | 30.64 | S | 0 | 0.00 |
| 18 | 12/05 | 07:00 | 26 | 23 | 91 | 30.62 | SSW | 0 | 0.00 |
| 19 | 12/05 | 06:00 | 26 | 23 | 90 | 30.61 | S | 0 | 0.00 |
| 20 | 12/05 | 05:00 | 26 | 23 | 90 | 30.60 | W | 0 | 0.00 |
| 21 | 12/05 | 04:00 | 27 | 24 | 89 | 30.58 | SSW | 0 | 0.00 |
| 22 | 12/05 | 03:00 | 28 | 25 | 89 | 30.59 | WSW | 0 | 0.00 |
| 23 | 12/05 | 02:00 | 29 | 26 | 89 | 30.58 | S | 0 | 0.00 |
| 24 | 12/05 | 01:00 | 29 | 25 | 87 | 30.56 | NE | 0 | 0.00 |